createdAt,value
2019-01-08T00:02:28.140Z,9.90
2019-01-08T00:05:07.392Z,8.50
2019-01-08T00:07:44.550Z,6.40
2019-01-08T00:10:20.924Z,6.90
2019-01-08T00:12:56.930Z,5.43
2019-01-08T00:15:29.044Z,6.30
2019-01-08T00:18:03.257Z,4.37
2019-01-08T00:20:37.013Z,6.13
2019-01-08T00:23:09.766Z,3.97
2019-01-08T00:25:48.287Z,4.17
2019-01-08T00:28:34.057Z,4.63
2019-01-08T00:31:14.604Z,4.00
2019-01-08T00:33:44.907Z,4.77
2019-01-08T00:36:16.459Z,3.30
2019-01-08T00:38:47.641Z,3.57
2019-01-08T00:41:19.621Z,3.70
2019-01-08T00:43:58.345Z,4.77
2019-01-08T00:46:34.400Z,4.40
2019-01-08T00:49:05.351Z,3.77
2019-01-08T00:51:40.568Z,4.20
2019-01-08T00:54:15.655Z,4.10
2019-01-08T00:56:52.913Z,5.77
2019-01-08T00:59:35.481Z,3.13
2019-01-08T01:02:25.933Z,3.97
2019-01-08T01:04:59.915Z,4.10
2019-01-08T01:07:42.479Z,5.37
2019-01-08T01:10:17.668Z,4.03
2019-01-08T01:13:01.071Z,4.90
2019-01-08T01:15:34.905Z,3.87
2019-01-08T01:18:10.938Z,3.30
2019-01-08T01:20:46.905Z,4.50
2019-01-08T01:23:19.168Z,4.70
2019-01-08T01:25:51.686Z,3.20
2019-01-08T01:28:32.090Z,3.93
2019-01-08T01:31:08.803Z,4.33
2019-01-08T01:33:41.761Z,3.90
2019-01-08T01:36:14.232Z,4.07
2019-01-08T01:38:47.207Z,3.73
2019-01-08T01:41:23.574Z,3.87
2019-01-08T01:44:01.584Z,4.87
2019-01-08T01:46:49.131Z,3.57
2019-01-08T01:49:34.073Z,3.43
2019-01-08T01:52:12.385Z,3.67
2019-01-08T01:54:52.778Z,4.83
2019-01-08T01:57:29.930Z,3.67
2019-01-08T02:00:00.699Z,3.40
2019-01-08T02:02:32.692Z,4.13
2019-01-08T02:05:09.202Z,4.17
2019-01-08T02:07:45.942Z,3.23
2019-01-08T02:10:17.999Z,3.10
2019-01-08T02:12:55.737Z,3.23
2019-01-08T02:15:33.201Z,3.17
2019-01-08T02:18:10.042Z,3.17
2019-01-08T02:20:47.016Z,2.73
2019-01-08T02:23:21.938Z,3.30
2019-01-08T02:25:58.465Z,2.27
2019-01-08T02:28:32.021Z,3.27
2019-01-08T02:31:07.264Z,2.43
2019-01-08T02:34:11.243Z,2.73
2019-01-08T02:36:45.616Z,3.33
2019-01-08T02:39:22.105Z,2.03
2019-01-08T02:41:55.981Z,2.50
2019-01-08T02:44:38.698Z,2.80
2019-01-08T02:47:19.858Z,2.40
2019-01-08T02:49:52.812Z,2.27
2019-01-08T02:52:23.445Z,1.97
2019-01-08T02:54:59.453Z,2.27
2019-01-08T02:57:29.548Z,2.10
2019-01-08T03:00:07.122Z,2.50
2019-01-08T03:02:39.995Z,2.37
2019-01-08T03:05:10.791Z,2.20
2019-01-08T03:07:44.600Z,2.70
2019-01-08T03:10:23.278Z,2.17
2019-01-08T03:12:49.796Z,1.77
2019-01-08T03:15:23.091Z,1.70
2019-01-08T03:17:56.845Z,1.60
2019-01-08T03:20:29.975Z,2.00
2019-01-08T03:23:00.970Z,2.03
2019-01-08T03:25:31.848Z,1.90
2019-01-08T03:28:14.520Z,1.80
2019-01-08T03:30:45.032Z,1.83
2019-01-08T03:33:16.093Z,2.33
2019-01-08T03:35:50.365Z,1.83
2019-01-08T03:38:23.378Z,1.80
2019-01-08T03:40:54.845Z,1.83
2019-01-08T03:43:34.944Z,1.97
2019-01-08T03:46:01.155Z,1.70
2019-01-08T03:48:31.790Z,2.07
2019-01-08T03:51:02.297Z,1.90
2019-01-08T03:53:37.168Z,3.33
2019-01-08T03:56:08.071Z,2.47
2019-01-08T03:58:38.596Z,2.63
2019-01-08T04:01:10.266Z,2.50
2019-01-08T04:03:44.529Z,2.67
2019-01-08T04:06:17.440Z,3.00
2019-01-08T04:08:49.176Z,3.40
2019-01-08T04:11:19.762Z,2.90
2019-01-08T04:13:53.965Z,3.37
2019-01-08T04:16:30.779Z,3.13
2019-01-08T04:19:01.355Z,3.77
2019-01-08T04:21:34.894Z,2.93
2019-01-08T04:24:09.167Z,3.97
2019-01-08T04:26:39.961Z,2.80
2019-01-08T04:29:10.542Z,4.17
2019-01-08T04:31:41.128Z,3.57
2019-01-08T04:34:22.322Z,2.20
2019-01-08T04:36:53.329Z,3.00
2019-01-08T04:39:27.091Z,2.83
2019-01-08T04:42:03.054Z,3.37
2019-01-08T04:44:36.992Z,4.80
2019-01-08T04:47:10.975Z,3.00
2019-01-08T04:49:47.293Z,3.53
2019-01-08T04:52:19.755Z,4.83
2019-01-08T04:54:53.864Z,2.97
2019-01-08T04:57:24.470Z,7.63
2019-01-08T04:59:59.032Z,4.43
2019-01-08T05:02:30.151Z,5.63
2019-01-08T05:05:04.751Z,2.83
2019-01-08T05:07:38.852Z,3.47
2019-01-08T05:10:11.744Z,4.87
2019-01-08T05:12:42.593Z,3.90
2019-01-08T05:15:23.635Z,3.57
2019-01-08T05:17:56.502Z,3.27
2019-01-08T05:20:29.030Z,3.43
2019-01-08T05:23:00.871Z,5.13
2019-01-08T05:25:33.054Z,3.23
2019-01-08T05:28:09.426Z,5.73
2019-01-08T05:30:40.048Z,3.73
2019-01-08T05:33:12.641Z,3.23
2019-01-08T05:35:46.250Z,4.77
2019-01-08T05:38:24.619Z,4.87
2019-01-08T05:40:59.967Z,7.97
2019-01-08T05:43:33.188Z,6.27
2019-01-08T05:46:03.818Z,5.27
2019-01-08T05:48:34.327Z,5.97
2019-01-08T05:51:07.182Z,5.17
2019-01-08T05:53:40.430Z,5.03
2019-01-08T05:56:12.524Z,5.03
2019-01-08T05:58:43.279Z,4.77
2019-01-08T06:01:21.213Z,6.03
2019-01-08T06:03:53.555Z,5.07
2019-01-08T06:06:27.009Z,7.23
2019-01-08T06:09:04.509Z,4.63
2019-01-08T06:11:35.099Z,4.87
2019-01-08T06:14:05.631Z,6.27
2019-01-08T06:16:44.895Z,7.83
2019-01-08T06:19:34.172Z,10.27
2019-01-08T06:22:05.504Z,2.87
2019-01-08T06:24:40.927Z,6.43
2019-01-08T06:27:14.657Z,4.57
2019-01-08T06:29:48.497Z,4.57
2019-01-08T06:32:41.375Z,5.60
2019-01-08T06:35:15.505Z,4.20
2019-01-08T06:37:46.329Z,8.73
2019-01-08T06:40:17.303Z,5.30
2019-01-08T06:42:53.352Z,5.97
2019-01-08T06:45:27.839Z,3.20
2019-01-08T06:48:02.776Z,3.43
2019-01-08T06:50:37.328Z,2.80
2019-01-08T06:53:13.685Z,5.20
2019-01-08T06:55:49.413Z,4.57
2019-01-08T06:58:23.145Z,6.33
2019-01-08T07:01:13.148Z,1.82
2019-01-08T07:03:48.999Z,3.10
2019-01-08T07:06:28.424Z,5.10
2019-01-08T07:09:01.340Z,3.00
2019-01-08T07:11:44.644Z,4.17
2019-01-08T07:14:24.264Z,4.30
2019-01-08T07:16:57.081Z,5.20
2019-01-08T07:19:45.805Z,6.53
2019-01-08T07:22:16.351Z,5.70
2019-01-08T07:24:50.464Z,5.63
2019-01-08T07:27:26.411Z,6.40
2019-01-08T07:29:58.230Z,10.40
2019-01-08T07:32:29.556Z,4.57
2019-01-08T07:35:20.801Z,9.00
2019-01-08T07:38:03.254Z,8.00
2019-01-08T07:40:51.167Z,8.73
2019-01-08T07:43:15.295Z,8.73
2019-01-08T07:46:48.780Z,6.50
2019-01-08T07:49:16.276Z,6.23
2019-01-08T07:52:00.192Z,5.23
2019-01-08T07:54:38.612Z,6.53
2019-01-08T07:57:17.024Z,3.93
2019-01-08T07:59:47.439Z,7.17
2019-01-08T08:02:21.388Z,7.67
2019-01-08T08:05:22.424Z,2.47
2019-01-08T08:07:54.537Z,8.00
2019-01-08T08:10:28.265Z,4.83
2019-01-08T08:13:04.019Z,6.27
2019-01-08T08:15:38.794Z,7.43
2019-01-08T08:18:13.516Z,5.80
2019-01-08T08:20:54.236Z,5.00
2019-01-08T08:24:47.216Z,9.57
2019-01-08T08:26:31.459Z,5.17
2019-01-08T08:29:15.991Z,7.20
2019-01-08T08:32:02.719Z,3.50
2019-01-08T08:34:37.019Z,4.77
2019-01-08T08:37:38.163Z,7.30
2019-01-08T08:40:12.065Z,7.37
2019-01-08T08:42:44.856Z,7.70
2019-01-08T08:45:20.014Z,5.57
2019-01-08T08:47:49.723Z,4.63
2019-01-08T08:50:23.715Z,6.40
2019-01-08T08:52:56.527Z,1.97
2019-01-08T08:55:41.327Z,5.70
2019-01-08T08:58:14.959Z,5.03
2019-01-08T09:00:46.586Z,7.40
2019-01-08T09:03:21.625Z,6.13
2019-01-08T09:05:54.931Z,7.63
2019-01-08T09:08:25.341Z,5.00
2019-01-08T09:10:58.631Z,4.27
2019-01-08T09:13:29.568Z,4.97
2019-01-08T09:16:00.040Z,3.87
2019-01-08T09:18:30.780Z,6.80
2019-01-08T09:21:04.776Z,5.07
2019-01-08T09:23:35.887Z,4.40
2019-01-08T09:26:07.220Z,3.13
2019-01-08T09:28:42.468Z,5.93
2019-01-08T09:31:17.714Z,2.27
2019-01-08T09:33:53.243Z,5.10
2019-01-08T09:40:56.869Z,3.30
2019-01-08T09:47:27.555Z,5.00
2019-01-08T09:49:59.071Z,5.07
2019-01-08T09:52:49.171Z,7.40
2019-01-08T09:55:28.749Z,8.47
2019-01-08T09:58:06.362Z,4.23
2019-01-08T10:00:58.771Z,5.87
2019-01-08T10:03:33.555Z,6.93
2019-01-08T10:06:11.081Z,8.57
2019-01-08T10:08:57.326Z,4.13
2019-01-08T10:11:28.379Z,5.30
2019-01-08T10:13:59.555Z,6.57
2019-01-08T10:16:35.893Z,5.20
2019-01-08T10:19:08.364Z,5.53
2019-01-08T10:21:40.650Z,3.63
2019-01-08T10:24:11.930Z,4.53
2019-01-08T10:26:51.048Z,7.27
2019-01-08T10:29:22.088Z,4.23
2019-01-08T10:31:55.898Z,5.13
2019-01-08T10:34:37.384Z,7.33
2019-01-08T10:37:11.378Z,4.83
2019-01-08T10:39:42.840Z,5.87
2019-01-08T10:42:13.585Z,3.93
2019-01-08T10:44:44.588Z,3.90
2019-01-08T10:47:15.531Z,3.13
2019-01-08T10:49:51.527Z,6.20
2019-01-08T10:52:36.712Z,3.60
2019-01-08T10:55:10.010Z,5.97
2019-01-08T10:57:49.329Z,6.30
2019-01-08T11:00:24.143Z,7.00
2019-01-08T11:02:54.881Z,4.90
2019-01-08T11:05:25.784Z,6.17
2019-01-08T11:07:56.280Z,5.43
2019-01-08T11:10:29.370Z,6.50
2019-01-08T11:16:06.084Z,6.23
2019-01-08T11:18:45.215Z,8.63
2019-01-08T11:21:23.399Z,7.90
2019-01-08T11:23:55.098Z,7.47
2019-01-08T11:26:26.725Z,8.17
2019-01-08T11:29:00.713Z,6.70
2019-01-08T11:31:48.747Z,5.50
2019-01-08T11:34:21.972Z,9.23
2019-01-08T11:36:54.691Z,3.70
2019-01-08T11:39:29.511Z,8.37
2019-01-08T11:42:08.004Z,5.43
2019-01-08T11:45:14.056Z,6.70
2019-01-08T11:47:45.312Z,4.03
2019-01-08T11:50:16.129Z,6.93
2019-01-08T11:52:50.364Z,6.70
2019-01-08T11:55:20.885Z,3.57
2019-01-08T11:57:51.989Z,7.13
2019-01-08T12:00:28.808Z,4.97
2019-01-08T12:03:01.500Z,5.27
2019-01-08T12:05:36.464Z,6.40
2019-01-08T12:08:10.267Z,4.87
2019-01-08T12:11:08.979Z,3.07
2019-01-08T12:13:40.135Z,6.17
2019-01-08T12:16:13.620Z,2.73
2019-01-08T12:19:10.754Z,4.20
2019-01-08T12:22:00.888Z,2.73
2019-01-08T12:24:34.298Z,2.97
2019-01-08T12:27:04.852Z,5.10
2019-01-08T12:29:37.352Z,1.37
2019-01-08T12:32:07.800Z,2.17
2019-01-08T12:34:38.291Z,2.53
2019-01-08T12:37:08.910Z,1.10
2019-01-08T12:39:47.052Z,3.53
2019-01-08T12:42:18.103Z,2.73
2019-01-08T12:44:48.584Z,1.03
2019-01-08T12:47:19.663Z,1.23
2019-01-08T12:49:50.153Z,2.93
2019-01-08T12:52:21.400Z,1.97
2019-01-08T12:54:53.996Z,1.67
2019-01-08T12:57:24.305Z,1.30
2019-01-08T12:59:55.278Z,3.13
2019-01-08T13:02:28.757Z,1.63
2019-01-08T13:05:03.184Z,1.03
2019-01-08T13:07:51.849Z,2.07
2019-01-08T13:10:14.661Z,3.57
2019-01-08T13:12:45.044Z,2.00
2019-01-08T13:15:15.506Z,2.03
2019-01-08T13:17:50.706Z,1.27
2019-01-08T13:20:22.066Z,2.80
2019-01-08T13:23:20.033Z,3.90
2019-01-08T13:25:50.580Z,1.67
2019-01-08T13:28:36.095Z,1.17
2019-01-08T13:34:37.214Z,1.80
2019-01-08T13:37:21.107Z,2.60
2019-01-08T13:39:55.612Z,3.63
2019-01-08T13:42:36.574Z,3.03
2019-01-08T13:45:31.128Z,1.20
2019-01-08T13:48:01.787Z,2.60
2019-01-08T13:50:46.450Z,1.40
2019-01-08T13:53:20.246Z,1.77
2019-01-08T13:55:57.291Z,1.43
2019-01-08T13:58:33.997Z,2.07
2019-01-08T14:01:06.472Z,3.03
2019-01-08T14:03:41.288Z,0.90
2019-01-08T14:06:15.032Z,4.80
2019-01-08T14:08:52.496Z,17.57
2019-01-08T14:11:27.468Z,1.70
2019-01-08T14:14:01.469Z,3.33
2019-01-08T14:16:32.245Z,2.10
2019-01-08T14:19:22.541Z,1.80
2019-01-08T14:22:00.515Z,3.43
2019-01-08T14:24:42.440Z,3.93
2019-01-08T14:27:17.860Z,6.50
2019-01-08T14:29:51.474Z,2.97
2019-01-08T14:32:26.916Z,4.83
2019-01-08T14:34:58.013Z,2.97
2019-01-08T14:37:28.323Z,6.33
2019-01-08T14:39:58.605Z,4.10
2019-01-08T14:42:31.041Z,9.87
2019-01-08T14:45:01.340Z,7.83
2019-01-08T14:47:45.059Z,5.83
2019-01-08T14:50:32.784Z,6.43
2019-01-08T14:53:18.227Z,5.80
2019-01-08T14:55:58.604Z,7.10
2019-01-08T15:02:13.724Z,7.37
2019-01-08T15:08:01.454Z,9.23
2019-01-08T15:10:33.385Z,13.40
2019-01-08T15:13:48.265Z,13.03
2019-01-08T15:16:28.517Z,9.73
2019-01-08T15:19:04.110Z,11.67
2019-01-08T15:21:48.736Z,13.70
2019-01-08T15:24:36.665Z,13.57
2019-01-08T15:27:07.290Z,13.73
2019-01-08T15:29:47.204Z,14.47
2019-01-08T15:32:22.984Z,11.67
2019-01-08T15:34:57.612Z,11.40
2019-01-08T15:38:08.727Z,10.53
2019-01-08T15:40:59.566Z,8.33
2019-01-08T15:44:05.971Z,6.20
2019-01-08T15:46:37.214Z,6.80
2019-01-08T15:49:15.719Z,6.83
2019-01-08T15:52:02.275Z,4.73
2019-01-08T15:54:35.699Z,3.33
2019-01-08T15:57:31.482Z,4.83
2019-01-08T16:01:21.408Z,7.17
2019-01-08T16:03:50.438Z,7.63
2019-01-08T16:11:00.922Z,7.50
2019-01-08T16:14:41.808Z,11.57
2019-01-08T16:19:05.025Z,12.63
2019-01-08T16:20:56.766Z,11.17
2019-01-08T16:23:47.812Z,9.37
2019-01-08T16:27:24.864Z,14.30
2019-01-08T16:34:06.239Z,7.87
2019-01-08T16:37:54.704Z,9.00
2019-01-08T16:40:40.793Z,10.07
2019-01-08T16:43:48.064Z,7.20
2019-01-08T16:46:40.091Z,7.13
2019-01-08T16:49:24.848Z,7.47
2019-01-08T16:52:16.120Z,6.07
2019-01-08T16:55:26.890Z,8.17
2019-01-08T16:58:20.531Z,11.00
2019-01-08T17:00:46.501Z,5.17
2019-01-08T17:03:30.834Z,10.50
2019-01-08T17:07:05.635Z,7.80
2019-01-08T17:10:06.165Z,8.30
2019-01-08T17:13:18.430Z,8.17
2019-01-08T17:16:00.398Z,9.93
2019-01-08T17:18:45.990Z,9.70
2019-01-08T17:21:52.131Z,12.07
2019-01-08T17:25:32.325Z,7.57
2019-01-08T17:27:52.294Z,6.80
2019-01-08T17:30:21.712Z,6.00
2019-01-08T17:33:03.392Z,8.97
2019-01-08T17:35:45.576Z,8.20
2019-01-08T17:38:51.250Z,5.83
2019-01-08T17:41:23.523Z,10.10
2019-01-08T17:44:01.128Z,11.07
2019-01-08T17:49:19.382Z,6.93
2019-01-08T17:51:52.023Z,7.93
2019-01-08T17:54:40.508Z,8.37
2019-01-08T17:57:35.737Z,11.53
2019-01-08T18:00:16.303Z,11.77
2019-01-08T18:06:04.489Z,9.20
2019-01-08T18:08:40.574Z,7.83
2019-01-08T18:11:17.243Z,10.47
2019-01-08T18:13:53.352Z,6.83
2019-01-08T18:16:27.278Z,8.17
2019-01-08T18:18:58.252Z,5.53
2019-01-08T18:21:30.009Z,7.37
2019-01-08T18:24:08.175Z,7.47
2019-01-08T18:30:47.085Z,7.27
2019-01-08T18:34:38.674Z,6.87
2019-01-08T18:37:22.615Z,7.80
2019-01-08T18:40:07.590Z,6.77
2019-01-08T18:43:28.165Z,4.77
2019-01-08T18:46:48.895Z,2.70
2019-01-08T18:50:14.853Z,6.17
2019-01-08T18:53:18.330Z,1.57
2019-01-08T18:56:36.986Z,3.63
2019-01-08T18:59:34.754Z,4.23
2019-01-08T19:02:48.019Z,3.60
2019-01-08T19:06:04.396Z,4.33
2019-01-08T19:20:00.446Z,3.73
2019-01-08T19:22:43.152Z,4.83
2019-01-08T19:25:38.153Z,4.53
2019-01-08T19:29:06.324Z,2.23
2019-01-08T19:31:53.752Z,6.53
2019-01-08T19:38:26.373Z,3.10
2019-01-08T19:41:28.044Z,3.43
2019-01-08T19:44:51.788Z,5.73
2019-01-08T19:47:31.000Z,2.97
2019-01-08T19:50:53.226Z,5.47
2019-01-08T19:56:17.467Z,4.23
2019-01-08T19:59:08.869Z,3.77
2019-01-08T20:02:11.113Z,3.13
2019-01-08T20:05:14.363Z,2.47
2019-01-08T20:10:57.960Z,6.50
2019-01-08T20:16:51.804Z,4.13
2019-01-08T20:19:37.237Z,6.53
2019-01-08T20:22:02.284Z,6.77
2019-01-08T20:28:25.454Z,4.97
2019-01-08T20:30:58.333Z,2.97
2019-01-08T20:34:30.613Z,17.20
2019-01-08T20:37:40.950Z,4.90
2019-01-08T20:40:43.661Z,5.20
2019-01-08T20:45:50.664Z,5.43
2019-01-08T20:47:28.968Z,4.93
2019-01-08T20:50:09.514Z,4.13
2019-01-08T20:53:22.009Z,4.40
2019-01-08T20:56:06.276Z,5.10
2019-01-08T21:03:00.359Z,5.30
2019-01-08T21:05:32.978Z,3.90
2019-01-08T21:08:03.964Z,5.87
2019-01-08T21:12:31.207Z,4.17
2019-01-08T21:13:54.024Z,3.70
2019-01-08T21:16:47.993Z,3.83
2019-01-08T21:19:28.906Z,2.87
2019-01-08T21:22:24.073Z,5.70
2019-01-08T21:24:57.538Z,4.33
2019-01-08T21:27:39.724Z,3.47
2019-01-08T21:30:54.735Z,4.73
2019-01-08T21:33:32.851Z,4.30
2019-01-08T21:36:08.229Z,5.73
2019-01-08T21:39:22.859Z,2.60
2019-01-08T21:41:57.009Z,5.37
2019-01-08T21:44:32.047Z,4.10
2019-01-08T21:47:10.477Z,5.40
2019-01-08T21:49:49.901Z,7.40
2019-01-08T21:52:28.611Z,3.03
2019-01-08T21:55:09.500Z,4.80
2019-01-08T21:57:41.868Z,3.40
2019-01-08T22:00:43.042Z,2.50
2019-01-08T22:02:52.770Z,3.53
2019-01-08T22:05:35.373Z,6.20
2019-01-08T22:08:15.733Z,6.80
2019-01-08T22:10:51.487Z,6.97
2019-01-08T22:13:24.917Z,5.53
2019-01-08T22:16:00.334Z,4.30
2019-01-08T22:18:37.899Z,7.00
2019-01-08T22:21:24.973Z,5.70
2019-01-08T22:24:00.880Z,3.63
2019-01-08T22:26:49.977Z,4.80
2019-01-08T22:31:44.401Z,4.27
2019-01-08T22:32:14.366Z,3.30
2019-01-08T22:34:45.981Z,3.60
2019-01-08T22:37:18.689Z,5.20
2019-01-08T22:40:19.232Z,4.83
2019-01-08T22:42:58.459Z,6.33
2019-01-08T22:46:26.621Z,6.13
2019-01-08T22:49:00.302Z,1.80
2019-01-08T22:52:12.429Z,4.53
2019-01-08T22:55:28.293Z,2.73
2019-01-08T22:58:47.384Z,4.33
2019-01-08T23:03:17.926Z,3.70
2019-01-08T23:05:36.203Z,2.50
2019-01-08T23:08:08.904Z,1.83
2019-01-08T23:10:52.707Z,4.30
2019-01-08T23:13:24.170Z,6.60
2019-01-08T23:16:15.790Z,5.57
2019-01-08T23:18:55.191Z,5.77
2019-01-08T23:22:58.227Z,1.53
2019-01-08T23:25:19.538Z,2.97
2019-01-08T23:28:47.694Z,4.63
2019-01-08T23:31:16.409Z,4.93
2019-01-08T23:34:40.551Z,5.17
2019-01-08T23:37:21.026Z,2.50
2019-01-08T23:43:00.476Z,3.87
2019-01-08T23:49:45.800Z,4.13
2019-01-08T23:52:52.256Z,2.80
2019-01-08T23:56:05.422Z,3.40
2019-01-08T23:58:36.729Z,1.63
